首页
METAR-TAF:

METAR-TAF

机场 :

君士坦丁, 阿尔及利亚

纬度: 36-17N, 经度: 006-37E, 海拔: 694米

当前天气观测

该预报发布于29分钟前的11:00 UTC
风速5节,风向西南
温度 13°C
湿度 58%
气压 1023 hPa
能见度10公里或以上
散云层高于3300英尺
散云层高于10000英尺

METAR: DABC 261100Z 22005KT 9999 SCT033 SCT100 13/05 Q1023

时间: 12:29 (11:29 UTC)

预报

该预报发布于6小时和29分钟前的05:00 UTC
预报有效从26日的 06点(UTC)到 27日的 06点(UTC)
风速8节,风向南转西南
能见度10公里或以上
少量云层高于3000英尺
多云层高于4000英尺
短暂存在
从 26日的 06点(UTC)到 26日的 10点(UTC)
能見度: 5000
少量云层高于2300英尺, 塔状积云.
小雨
几率 40% :
短暂存在
从 26日的 12点(UTC)到 26日的 20点(UTC)
能見度: 5000
少量云层高于2600英尺, 积雨云.

TAF: DABC 260500Z 2606/2706 21008KT 9999 FEW030 BKN040 TEMPO 2606/2610 5000 -RA FEW023TCU PROB40 TEMPO 2612/2620 5000 RA FEW026CB

超过4000个机场的气象观测和天气预报(METAR&TAF报告)。

可查询的气象台以黄色和红色小点在地图上表示。

将鼠标移到小点上方,可查看气象台名称。

然后点击查看天气观测和预报。

如需切换地图:点击带黑十字的绿色按钮放大地图;点击带横线的绿色按钮缩小地图;或者点击绿色箭头查看邻近地区的地图。


METAR-TAF: